Time;durP1;ratioP1;P1;durP2;ratioP2;P2;SDS_P1;SDS_P2;PMS_P1;PMS_P2;Temp;Humidity;BMP_temperature;BMP_pressure;BME280_temperature;BME280_humidity;BME280_pressure;Samples;Min_cycle;Max_cycle;Signal;HPM_P1;HPM_P2
2022/01/09 00:00:37;;;;;;;14.68;8.25;;;4.90;96.70;;;;;;4914036;29;20040;-70
2022/01/09 00:03:05;;;;;;;12.40;8.25;;;4.80;96.70;;;;;;4920050;28;20060;-70
2022/01/09 00:05:34;;;;;;;11.90;8.25;;;4.90;96.70;;;;;;4923646;29;20430;-70
2022/01/09 00:08:04;;;;;;;11.98;8.55;;;5.10;96.70;;;;;;4901730;29;20126;-70
2022/01/09 00:10:33;;;;;;;13.93;8.95;;;5.10;96.70;;;;;;4921677;29;20130;-70
2022/01/09 00:13:02;;;;;;;12.18;8.25;;;5.00;96.70;;;;;;4920402;29;20040;-69
2022/01/09 00:15:30;;;;;;;13.18;9.02;;;5.00;96.70;;;;;;4903737;29;20325;-70
2022/01/09 00:17:58;;;;;;;14.98;9.68;;;4.90;96.70;;;;;;4902676;29;20491;-70
2022/01/09 00:20:26;;;;;;;15.15;8.80;;;4.80;96.70;;;;;;4907181;29;20048;-70
2022/01/09 00:22:54;;;;;;;14.25;8.88;;;4.80;96.70;;;;;;4912459;29;20410;-70
2022/01/09 00:25:24;;;;;;;14.82;9.52;;;4.90;96.70;;;;;;4921710;29;20123;-70
2022/01/09 00:27:52;;;;;;;14.20;9.40;;;4.80;96.70;;;;;;4896217;29;20526;-70
2022/01/09 00:30:23;;;;;;;16.13;9.95;;;4.80;96.70;;;;;;4918363;29;20456;-70
2022/01/09 00:32:52;;;;;;;14.15;9.23;;;4.70;96.70;;;;;;4919504;29;20044;-70
2022/01/09 00:35:21;;;;;;;17.35;10.15;;;4.70;96.70;;;;;;4918913;29;20187;-70
2022/01/09 00:37:49;;;;;;;13.73;9.32;;;4.80;96.70;;;;;;4913586;29;20055;-70
2022/01/09 00:40:17;;;;;;;14.65;9.30;;;4.90;96.70;;;;;;4904466;29;20044;-70
2022/01/09 00:42:46;;;;;;;11.57;8.13;;;4.80;96.70;;;;;;4887644;29;20143;-70
2022/01/09 00:45:15;;;;;;;11.90;8.00;;;4.90;96.70;;;;;;4901699;29;20571;-70
2022/01/09 00:47:44;;;;;;;14.45;9.02;;;5.00;96.70;;;;;;4917066;29;20577;-70
2022/01/09 00:50:14;;;;;;;11.73;7.97;;;4.80;96.70;;;;;;4901489;29;20106;-70
2022/01/09 00:52:42;;;;;;;11.25;7.53;;;4.80;96.70;;;;;;4904277;29;20430;-70
2022/01/09 00:55:11;;;;;;;12.35;7.93;;;4.80;96.70;;;;;;4920852;29;20044;-70
2022/01/09 00:57:39;;;;;;;12.95;7.90;;;4.90;96.70;;;;;;4895672;29;20055;-70
2022/01/09 01:00:10;;;;;;;11.93;7.57;;;4.90;96.70;;;;;;4905696;29;20265;-70
2022/01/09 01:02:39;;;;;;;9.93;7.47;;;4.80;96.70;;;;;;4918662;29;20067;-70
2022/01/09 01:05:08;;;;;;;11.77;7.05;;;4.90;96.70;;;;;;4887694;29;20391;-70
2022/01/09 01:07:36;;;;;;;11.70;7.45;;;4.80;96.70;;;;;;4914005;29;20182;-70
2022/01/09 01:10:11;;;;;;;11.52;7.35;;;4.80;96.70;;;;;;4905799;29;20269;-70
2022/01/09 01:12:39;;;;;;;10.75;6.78;;;4.80;96.70;;;;;;4918746;29;20043;-70
2022/01/09 01:15:09;;;;;;;11.25;6.65;;;4.80;96.70;;;;;;4922877;29;20040;-70
2022/01/09 01:17:37;;;;;;;11.50;7.15;;;4.90;96.70;;;;;;4916990;29;21132;-70
2022/01/09 01:20:07;;;;;;;11.70;7.85;;;4.90;96.70;;;;;;4916077;29;20522;-70
2022/01/09 01:22:35;;;;;;;12.73;7.55;;;4.70;96.70;;;;;;4901581;29;20044;-70
2022/01/09 01:25:06;;;;;;;10.57;6.55;;;4.70;96.70;;;;;;4917708;29;20104;-70
2022/01/09 01:27:34;;;;;;;10.38;6.85;;;4.80;96.70;;;;;;4916286;29;20127;-70
2022/01/09 01:30:03;;;;;;;9.98;6.03;;;4.80;96.70;;;;;;4899530;29;20067;-70
2022/01/09 01:32:32;;;;;;;10.35;6.25;;;4.80;96.70;;;;;;4903580;29;20052;-70
2022/01/09 01:35:00;;;;;;;10.68;6.60;;;4.70;96.70;;;;;;4915559;29;20071;-70
2022/01/09 01:37:28;;;;;;;8.07;6.07;;;4.70;96.70;;;;;;4899839;29;20047;-70
2022/01/09 01:39:56;;;;;;;9.32;6.10;;;4.70;96.70;;;;;;4921525;29;20035;-70
2022/01/09 01:42:24;;;;;;;10.85;7.07;;;4.70;96.70;;;;;;4915655;29;20044;-70
2022/01/09 01:44:53;;;;;;;14.27;6.80;;;4.80;96.70;;;;;;4920322;29;20051;-70
2022/01/09 01:47:21;;;;;;;9.52;6.47;;;4.90;96.70;;;;;;4915831;29;20044;-70
2022/01/09 01:49:51;;;;;;;11.07;7.03;;;4.90;96.70;;;;;;4885197;29;20510;-70
2022/01/09 01:52:28;;;;;;;10.57;7.35;;;4.70;96.70;;;;;;4920016;29;20142;-70
2022/01/09 01:54:56;;;;;;;9.70;6.50;;;4.60;96.70;;;;;;4913701;29;20063;-70
2022/01/09 01:57:24;;;;;;;11.32;7.10;;;4.70;96.70;;;;;;4899491;29;20035;-69
2022/01/09 01:59:52;;;;;;;11.60;7.10;;;4.60;96.70;;;;;;4901394;29;20247;-70
2022/01/09 02:02:22;;;;;;;10.95;6.93;;;4.80;96.70;;;;;;4918503;29;20047;-70
2022/01/09 02:04:52;;;;;;;9.85;6.88;;;5.00;96.70;;;;;;4914615;29;20068;-70
2022/01/09 02:07:20;;;;;;;11.52;7.50;;;5.10;96.70;;;;;;4919680;29;20078;-70
2022/01/09 02:09:48;;;;;;;10.90;7.40;;;5.20;96.70;;;;;;4899684;29;20128;-70
2022/01/09 02:12:16;;;;;;;10.40;6.85;;;5.10;96.70;;;;;;4915435;29;20524;-70
2022/01/09 02:14:47;;;;;;;10.02;6.38;;;5.20;96.70;;;;;;4918490;29;20159;-70
2022/01/09 02:17:18;;;;;;;9.52;6.90;;;5.00;96.70;;;;;;4917461;29;20160;-70
2022/01/09 02:19:52;;;;;;;8.93;6.50;;;5.10;96.70;;;;;;4890058;29;20048;-70
2022/01/09 02:22:21;;;;;;;10.52;6.57;;;5.10;96.70;;;;;;4900492;29;20036;-70
2022/01/09 02:24:49;;;;;;;11.00;6.88;;;5.10;96.70;;;;;;4898913;29;20039;-70
2022/01/09 02:27:18;;;;;;;8.93;6.28;;;5.10;96.70;;;;;;4896646;29;20055;-70
2022/01/09 02:29:46;;;;;;;12.70;6.57;;;5.00;96.70;;;;;;4885527;29;20299;-70
2022/01/09 02:32:16;;;;;;;8.77;6.20;;;5.00;96.70;;;;;;4930795;28;20091;-70
2022/01/09 02:34:46;;;;;;;8.77;6.10;;;5.00;96.70;;;;;;4896509;29;20047;-70
2022/01/09 02:37:16;;;;;;;9.85;6.43;;;5.00;96.70;;;;;;4903043;29;20123;-70
2022/01/09 02:39:45;;;;;;;12.38;5.65;;;5.10;96.70;;;;;;4903275;29;20126;-70
2022/01/09 02:42:21;;;;;;;9.52;6.45;;;5.00;96.70;;;;;;4897005;29;20096;-70
2022/01/09 02:44:49;;;;;;;9.30;6.20;;;5.10;96.70;;;;;;4902885;29;20051;-70
2022/01/09 02:47:17;;;;;;;11.02;6.57;;;5.00;96.70;;;;;;4897236;29;20036;-70
2022/01/09 02:49:49;;;;;;;9.02;6.10;;;5.00;96.70;;;;;;4920832;29;20083;-68
2022/01/09 02:52:34;;;;;;;9.57;6.25;;;5.00;96.70;;;;;;4931371;28;20043;-70
2022/01/09 02:55:11;;;;;;;8.95;6.45;;;5.10;96.70;;;;;;4904197;29;20095;-70
2022/01/09 02:57:40;;;;;;;10.10;6.68;;;5.10;96.70;;;;;;4916655;29;20498;-70
2022/01/09 03:00:10;;;;;;;11.18;7.00;;;5.10;96.70;;;;;;4920138;29;20036;-70
2022/01/09 03:02:38;;;;;;;9.27;6.38;;;5.20;96.70;;;;;;4929636;29;20609;-71
2022/01/09 03:05:07;;;;;;;11.35;7.15;;;5.30;96.70;;;;;;4916889;29;20044;-70
2022/01/09 03:07:38;;;;;;;10.07;7.38;;;5.30;96.70;;;;;;4917242;29;20040;-70
2022/01/09 03:10:07;;;;;;;9.88;6.75;;;5.30;96.70;;;;;;4917340;29;20546;-70
2022/01/09 03:12:36;;;;;;;10.40;7.38;;;5.30;96.70;;;;;;4911487;29;20139;-70
2022/01/09 03:15:06;;;;;;;11.13;7.38;;;5.20;96.70;;;;;;4899552;29;20359;-71
2022/01/09 03:17:35;;;;;;;9.90;6.85;;;5.20;96.70;;;;;;4903037;29;20103;-71
2022/01/09 03:20:06;;;;;;;11.73;6.60;;;5.20;96.70;;;;;;4914822;29;20032;-71
2022/01/09 03:22:34;;;;;;;10.00;6.50;;;5.20;96.70;;;;;;4912332;29;20150;-71
2022/01/09 03:25:04;;;;;;;9.35;6.65;;;5.10;96.70;;;;;;4918655;29;20048;-71
2022/01/09 03:27:32;;;;;;;8.25;6.22;;;5.20;96.70;;;;;;4917628;29;20066;-71
2022/01/09 03:30:01;;;;;;;9.50;6.85;;;5.20;96.70;;;;;;4901728;29;20040;-71
2022/01/09 03:32:29;;;;;;;9.75;6.50;;;5.30;96.70;;;;;;4900928;29;20847;-71
2022/01/09 03:35:00;;;;;;;7.88;6.45;;;5.20;96.70;;;;;;4914860;29;20094;-71
2022/01/09 03:37:28;;;;;;;8.50;6.32;;;5.20;96.70;;;;;;4919070;29;20912;-72
2022/01/09 03:39:56;;;;;;;7.32;5.35;;;5.20;96.70;;;;;;4912774;29;20067;-71
2022/01/09 03:42:25;;;;;;;8.00;5.80;;;5.20;96.70;;;;;;4900992;29;20054;-71
2022/01/09 03:44:53;;;;;;;9.05;6.28;;;5.20;96.70;;;;;;4886425;29;20462;-72
2022/01/09 03:47:24;;;;;;;11.82;6.28;;;5.30;96.70;;;;;;4919533;29;20067;-71
2022/01/09 03:49:52;;;;;;;9.90;6.00;;;5.20;96.70;;;;;;4901914;29;20166;-71
2022/01/09 03:52:26;;;;;;;9.13;5.90;;;5.00;96.70;;;;;;4919518;29;20542;-71
2022/01/09 03:54:54;;;;;;;8.90;6.47;;;5.10;96.70;;;;;;4900064;29;20040;-71
2022/01/09 03:57:22;;;;;;;8.07;5.47;;;5.00;96.70;;;;;;4918462;29;20406;-71
2022/01/09 03:59:52;;;;;;;8.65;5.90;;;5.10;96.70;;;;;;4897599;29;20130;-71
2022/01/09 04:02:20;;;;;;;9.88;6.82;;;5.20;96.70;;;;;;4899254;29;20517;-71
2022/01/09 04:04:48;;;;;;;9.52;7.00;;;5.20;96.70;;;;;;4901810;29;20056;-71
2022/01/09 04:07:17;;;;;;;7.85;6.13;;;5.20;96.70;;;;;;4899809;29;20651;-71
2022/01/09 04:09:47;;;;;;;9.48;6.30;;;5.20;96.70;;;;;;4913550;29;20051;-71
2022/01/09 04:12:30;;;;;;;8.88;6.57;;;5.20;96.70;;;;;;4901620;29;20048;-71
2022/01/09 04:15:03;;;;;;;9.45;6.20;;;5.20;96.70;;;;;;4923101;29;20051;-71
2022/01/09 04:17:51;;;;;;;6.93;5.68;;;5.30;96.70;;;;;;4905964;29;20048;-71
2022/01/09 04:20:20;;;;;;;9.18;6.25;;;5.30;96.70;;;;;;4913997;29;20044;-71
2022/01/09 04:22:49;;;;;;;9.88;6.68;;;5.40;96.70;;;;;;4913097;29;20482;-71
2022/01/09 04:25:18;;;;;;;10.52;6.07;;;5.40;96.70;;;;;;4915276;29;20059;-71
2022/01/09 04:27:47;;;;;;;8.57;6.05;;;5.40;96.70;;;;;;4895776;29;20044;-71
2022/01/09 04:30:16;;;;;;;8.55;6.30;;;5.30;96.70;;;;;;4916749;29;20422;-71
2022/01/09 04:32:45;;;;;;;9.13;6.70;;;5.20;96.70;;;;;;4915487;29;20047;-71
2022/01/09 04:35:14;;;;;;;8.70;7.35;;;5.10;96.70;;;;;;4901621;29;20395;-71
2022/01/09 04:37:42;;;;;;;9.05;7.03;;;5.00;96.70;;;;;;4915994;29;20447;-71
2022/01/09 04:40:13;;;;;;;10.57;7.53;;;5.10;96.70;;;;;;4901128;29;21335;-71
2022/01/09 04:42:45;;;;;;;10.70;7.70;;;5.20;96.70;;;;;;4914122;29;20588;-71
2022/01/09 04:45:17;;;;;;;12.65;8.45;;;5.20;96.70;;;;;;4899351;29;20043;-71
2022/01/09 04:47:47;;;;;;;9.95;7.63;;;5.20;96.70;;;;;;4901679;29;20465;-71
2022/01/09 04:50:21;;;;;;;10.13;8.10;;;5.20;96.70;;;;;;4913366;29;20286;-71
2022/01/09 04:52:53;;;;;;;12.18;8.15;;;5.00;96.70;;;;;;4907747;29;20040;-71
2022/01/09 04:55:21;;;;;;;9.45;7.95;;;5.10;96.70;;;;;;4919787;29;20402;-71
2022/01/09 04:57:49;;;;;;;10.10;8.15;;;5.10;96.70;;;;;;4885419;29;20494;-71
2022/01/09 05:00:18;;;;;;;12.95;8.55;;;5.00;96.70;;;;;;4887792;29;20411;-71
2022/01/09 05:02:46;;;;;;;11.88;8.10;;;5.00;96.70;;;;;;4881477;29;20056;-72
2022/01/09 05:05:15;;;;;;;11.95;8.05;;;5.10;96.70;;;;;;4883827;29;20554;-71
2022/01/09 05:07:44;;;;;;;11.30;8.63;;;5.20;96.70;;;;;;4884014;29;20044;-71
2022/01/09 05:10:13;;;;;;;12.68;9.25;;;5.10;96.70;;;;;;4884362;29;20510;-72
2022/01/09 05:12:41;;;;;;;11.13;8.73;;;5.00;96.70;;;;;;4880888;29;20718;-71
2022/01/09 05:15:18;;;;;;;10.57;8.45;;;5.00;96.70;;;;;;4897919;29;20388;-71
2022/01/09 05:17:50;;;;;;;14.20;9.00;;;5.10;96.70;;;;;;4881692;29;20040;-71
2022/01/09 05:20:18;;;;;;;10.23;7.88;;;5.00;96.70;;;;;;4883348;29;20515;-71
2022/01/09 05:22:46;;;;;;;10.30;8.00;;;5.00;96.70;;;;;;4878276;29;20149;-71
2022/01/09 05:25:14;;;;;;;8.48;6.82;;;5.10;96.70;;;;;;4899072;29;20598;-71
2022/01/09 05:27:43;;;;;;;10.15;7.80;;;5.00;96.70;;;;;;4884423;29;20099;-71
2022/01/09 05:30:11;;;;;;;8.43;5.90;;;5.00;96.70;;;;;;4882748;29;20064;-71
2022/01/09 05:32:39;;;;;;;10.48;6.80;;;5.00;96.70;;;;;;4887532;29;20040;-71
2022/01/09 05:35:10;;;;;;;8.23;5.95;;;5.10;96.70;;;;;;4897245;29;20071;-71
2022/01/09 05:37:41;;;;;;;8.52;6.07;;;5.20;96.70;;;;;;4883446;29;20067;-71
2022/01/09 05:40:10;;;;;;;7.95;5.95;;;5.30;96.70;;;;;;4881157;29;20052;-71
2022/01/09 05:42:38;;;;;;;8.00;5.43;;;5.30;96.70;;;;;;4895111;29;20400;-71
2022/01/09 05:45:08;;;;;;;9.40;5.68;;;5.30;96.70;;;;;;4879122;29;20089;-71
2022/01/09 05:47:36;;;;;;;8.73;5.47;;;5.40;96.70;;;;;;4866525;29;20154;-71
2022/01/09 05:50:08;;;;;;;7.13;5.18;;;5.40;96.70;;;;;;4894752;29;20076;-71
2022/01/09 05:52:38;;;;;;;6.03;4.82;;;5.30;96.70;;;;;;4897220;29;20605;-71
2022/01/09 05:55:07;;;;;;;6.07;4.97;;;5.30;96.70;;;;;;4894832;29;20060;-71
2022/01/09 05:57:35;;;;;;;7.97;5.32;;;5.30;96.70;;;;;;4899668;29;20056;-71
2022/01/09 06:00:04;;;;;;;8.45;5.43;;;5.30;96.70;;;;;;4882824;29;20123;-71
2022/01/09 06:02:32;;;;;;;7.90;5.30;;;5.30;96.70;;;;;;4896211;29;20531;-71
2022/01/09 06:05:00;;;;;;;7.35;5.70;;;5.30;96.70;;;;;;4899252;29;20044;-71
2022/01/09 06:07:28;;;;;;;6.85;5.15;;;5.30;96.70;;;;;;4922920;29;20507;-71
2022/01/09 06:09:58;;;;;;;6.68;4.60;;;5.30;96.70;;;;;;4898515;29;20244;-72
2022/01/09 06:12:26;;;;;;;7.78;5.05;;;5.40;96.70;;;;;;4915962;29;20491;-71
2022/01/09 06:14:54;;;;;;;6.82;4.97;;;5.40;96.70;;;;;;4898113;29;20052;-71
2022/01/09 06:17:25;;;;;;;5.63;4.65;;;5.40;96.70;;;;;;4896048;29;20047;-72
2022/01/09 06:19:53;;;;;;;7.40;4.68;;;5.40;96.70;;;;;;4901131;29;20154;-71
2022/01/09 06:22:21;;;;;;;7.55;4.88;;;5.30;96.70;;;;;;4878534;29;20172;-71
2022/01/09 06:24:51;;;;;;;6.90;5.30;;;5.30;96.70;;;;;;4857221;29;20626;-71
2022/01/09 06:27:23;;;;;;;5.13;4.13;;;5.30;96.70;;;;;;4869336;29;20207;-71
2022/01/09 06:29:51;;;;;;;6.07;4.43;;;5.30;96.70;;;;;;4879073;29;20330;-71
2022/01/09 06:32:21;;;;;;;6.82;4.47;;;5.20;96.70;;;;;;4875799;29;20067;-72
2022/01/09 06:34:49;;;;;;;7.28;4.85;;;5.20;96.70;;;;;;4880282;29;20407;-72
2022/01/09 06:37:18;;;;;;;6.90;4.32;;;5.30;96.70;;;;;;4876344;29;20061;-72
2022/01/09 06:39:46;;;;;;;6.07;4.15;;;5.30;96.70;;;;;;4878125;29;20048;-71
2022/01/09 06:42:14;;;;;;;6.95;4.63;;;5.30;96.70;;;;;;4848120;29;20048;-71
2022/01/09 06:44:43;;;;;;;7.07;4.53;;;5.30;96.70;;;;;;4859173;29;20056;-71
2022/01/09 06:47:12;;;;;;;5.85;4.60;;;5.20;96.70;;;;;;4871906;29;20052;-71
2022/01/09 06:49:40;;;;;;;7.38;4.28;;;5.30;96.70;;;;;;4875930;29;20488;-71
2022/01/09 06:52:08;;;;;;;7.38;4.20;;;5.30;96.70;;;;;;4866125;29;20076;-72
2022/01/09 06:54:36;;;;;;;6.57;4.47;;;5.30;96.70;;;;;;4885026;29;20048;-72
2022/01/09 06:57:05;;;;;;;6.45;3.83;;;5.30;96.70;;;;;;4870126;29;20504;-71
2022/01/09 06:59:33;;;;;;;6.72;4.38;;;5.30;96.70;;;;;;4878011;29;20094;-71
2022/01/09 07:02:03;;;;;;;5.95;4.03;;;5.40;96.70;;;;;;4913983;29;20052;-72
2022/01/09 07:04:31;;;;;;;6.78;3.72;;;5.40;96.70;;;;;;4906551;29;20099;-72
2022/01/09 07:06:59;;;;;;;6.22;4.30;;;5.40;96.70;;;;;;4911367;29;20401;-71
2022/01/09 07:09:27;;;;;;;5.93;3.92;;;5.30;96.70;;;;;;4919273;29;20047;-71
2022/01/09 07:11:55;;;;;;;5.60;3.97;;;5.40;96.70;;;;;;4904796;29;20138;-71
2022/01/09 07:14:23;;;;;;;7.90;3.78;;;5.30;96.70;;;;;;4918378;29;20661;-71
2022/01/09 07:16:51;;;;;;;5.72;3.90;;;5.40;96.70;;;;;;4895494;29;20552;-71
2022/01/09 07:19:21;;;;;;;5.85;4.38;;;5.40;96.70;;;;;;4933387;28;20055;-71
2022/01/09 07:21:49;;;;;;;4.53;3.65;;;5.40;96.70;;;;;;4889633;29;20402;-72
2022/01/09 07:24:17;;;;;;;5.20;3.60;;;5.50;96.70;;;;;;4919383;29;20126;-71
2022/01/09 07:26:45;;;;;;;5.18;3.45;;;5.50;96.70;;;;;;4899960;29;20108;-71
2022/01/09 07:29:13;;;;;;;4.45;3.25;;;5.50;96.70;;;;;;4916527;29;20044;-71
2022/01/09 07:31:41;;;;;;;4.35;3.28;;;5.50;96.70;;;;;;4912114;29;20044;-71
2022/01/09 07:34:09;;;;;;;4.70;3.58;;;5.50;96.70;;;;;;4919667;29;20040;-72
2022/01/09 07:36:38;;;;;;;4.68;3.60;;;5.60;96.70;;;;;;4916801;29;20445;-71
2022/01/09 07:39:06;;;;;;;6.97;4.60;;;5.60;96.70;;;;;;4903673;29;20052;-71
2022/01/09 07:41:34;;;;;;;5.57;3.58;;;5.60;96.70;;;;;;4919575;29;20116;-71
2022/01/09 07:44:02;;;;;;;6.78;4.30;;;5.60;96.70;;;;;;4901738;29;20143;-71
2022/01/09 07:46:30;;;;;;;5.50;3.70;;;5.70;96.70;;;;;;4909985;29;20455;-72
2022/01/09 07:48:59;;;;;;;4.20;3.53;;;5.60;96.70;;;;;;4917061;29;20044;-71
2022/01/09 07:51:27;;;;;;;5.97;4.63;;;5.60;96.70;;;;;;4916906;29;20083;-71
2022/01/09 07:54:16;;;;;;;3.50;2.80;;;5.70;96.70;;;;;;4912539;29;20052;-71
2022/01/09 07:56:44;;;;;;;4.57;3.40;;;5.70;96.70;;;;;;4901790;29;20040;-71
2022/01/09 07:59:12;;;;;;;5.90;4.00;;;5.60;96.70;;;;;;4917028;29;20049;-71
2022/01/09 08:01:45;;;;;;;5.47;3.40;;;5.60;96.70;;;;;;4915019;29;20051;-71
2022/01/09 08:04:14;;;;;;;6.00;3.35;;;5.60;96.70;;;;;;4920263;29;20098;-71
2022/01/09 08:06:42;;;;;;;5.07;3.20;;;5.60;96.70;;;;;;4926060;28;20055;-71
2022/01/09 08:09:10;;;;;;;4.80;3.60;;;5.70;96.70;;;;;;4895374;29;20126;-71
2022/01/09 08:11:39;;;;;;;4.45;3.42;;;5.70;96.70;;;;;;4919150;29;20047;-71
2022/01/09 08:14:07;;;;;;;6.10;3.42;;;5.80;96.70;;;;;;4921058;29;20048;-71
2022/01/09 08:16:35;;;;;;;5.32;3.28;;;5.90;96.70;;;;;;4920229;29;20597;-71
2022/01/09 08:19:03;;;;;;;7.43;3.35;;;5.90;96.70;;;;;;4917230;29;20036;-71
2022/01/09 08:21:31;;;;;;;4.07;3.03;;;5.90;96.70;;;;;;4921517;29;20128;-71
2022/01/09 08:23:59;;;;;;;6.93;4.10;;;6.00;96.70;;;;;;4912872;29;20714;-71
2022/01/09 08:26:27;;;;;;;5.30;3.25;;;6.00;96.70;;;;;;4904994;29;20134;-71
2022/01/09 08:28:56;;;;;;;6.07;3.70;;;6.00;96.70;;;;;;4922633;29;20092;-71
2022/01/09 08:31:24;;;;;;;5.05;3.53;;;6.00;96.70;;;;;;4891704;29;20414;-71
2022/01/09 08:33:52;;;;;;;4.13;3.33;;;6.00;96.70;;;;;;4899700;29;20048;-71
2022/01/09 08:36:20;;;;;;;4.35;2.92;;;6.00;96.70;;;;;;4919104;29;20036;-71
2022/01/09 08:38:48;;;;;;;4.20;2.80;;;6.00;96.70;;;;;;4921596;29;20052;-71
2022/01/09 08:41:16;;;;;;;3.78;3.08;;;6.10;96.70;;;;;;4920555;29;20532;-71
2022/01/09 08:43:44;;;;;;;2.88;2.13;;;6.10;96.70;;;;;;4912577;29;20558;-72
2022/01/09 08:46:15;;;;;;;2.78;2.10;;;6.10;96.70;;;;;;4902638;29;20036;-71
2022/01/09 08:48:43;;;;;;;3.58;2.72;;;6.00;96.70;;;;;;4916669;29;20075;-71
2022/01/09 08:51:11;;;;;;;4.00;3.10;;;6.10;96.70;;;;;;4903937;29;20066;-71
2022/01/09 08:53:40;;;;;;;4.88;3.00;;;6.00;96.70;;;;;;4897310;29;20040;-71
2022/01/09 08:56:08;;;;;;;4.72;2.47;;;6.00;96.70;;;;;;4934911;28;20052;-71
2022/01/09 08:58:37;;;;;;;3.95;2.63;;;6.00;96.70;;;;;;4899252;29;20040;-71
2022/01/09 09:01:05;;;;;;;3.55;2.55;;;5.90;96.70;;;;;;4900799;29;20040;-71
2022/01/09 09:03:36;;;;;;;3.78;2.97;;;5.90;96.70;;;;;;4921028;29;20048;-71
2022/01/09 09:06:04;;;;;;;2.95;2.30;;;5.90;96.70;;;;;;4907138;29;20182;-72
2022/01/09 09:08:32;;;;;;;3.28;2.13;;;5.90;96.70;;;;;;4917342;29;20408;-71
2022/01/09 09:11:00;;;;;;;3.28;1.98;;;5.80;96.70;;;;;;4899725;29;20071;-71
2022/01/09 09:13:28;;;;;;;3.08;1.85;;;5.80;96.70;;;;;;4917641;29;20529;-71
2022/01/09 09:15:56;;;;;;;2.53;1.90;;;5.80;96.70;;;;;;4901964;29;20048;-71
2022/01/09 09:18:24;;;;;;;3.10;1.88;;;5.80;96.70;;;;;;4922641;29;20148;-71
2022/01/09 09:20:54;;;;;;;2.67;1.90;;;5.80;96.70;;;;;;4919935;29;20507;-72
2022/01/09 09:23:22;;;;;;;2.72;1.92;;;5.80;96.70;;;;;;4900472;29;20175;-71
2022/01/09 09:25:50;;;;;;;1.85;1.50;;;5.80;96.70;;;;;;4897936;29;20410;-72
2022/01/09 09:28:19;;;;;;;2.28;1.70;;;5.90;96.70;;;;;;4919186;29;20154;-71
2022/01/09 09:30:47;;;;;;;2.40;1.63;;;5.90;96.70;;;;;;4915893;29;20131;-71
2022/01/09 09:33:14;;;;;;;2.53;1.70;;;5.90;96.70;;;;;;4904465;29;20083;-71
2022/01/09 09:35:43;;;;;;;1.80;1.40;;;6.00;96.70;;;;;;4913740;29;20406;-71
2022/01/09 09:38:12;;;;;;;2.10;1.27;;;6.00;96.70;;;;;;4901531;29;20048;-72
2022/01/09 09:40:41;;;;;;;1.92;1.25;;;6.10;96.70;;;;;;4919215;29;20518;-73
2022/01/09 09:43:09;;;;;;;1.58;0.95;;;6.20;96.70;;;;;;4916900;29;20044;-72
2022/01/09 09:45:37;;;;;;;1.50;0.90;;;6.30;96.70;;;;;;4883783;29;20040;-71
2022/01/09 09:48:06;;;;;;;2.00;1.48;;;6.40;96.70;;;;;;4898731;29;20060;-72
2022/01/09 09:50:34;;;;;;;1.67;1.02;;;6.40;96.70;;;;;;4913637;29;20043;-71
2022/01/09 09:53:02;;;;;;;2.50;0.95;;;6.40;96.70;;;;;;4899503;29;20135;-72
2022/01/09 09:55:32;;;;;;;1.73;1.20;;;6.50;96.70;;;;;;4901173;29;20075;-72
2022/01/09 09:58:00;;;;;;;2.25;1.20;;;6.50;96.70;;;;;;4917583;29;20044;-72
2022/01/09 10:00:28;;;;;;;2.03;0.93;;;6.60;96.70;;;;;;4900341;29;20043;-71
2022/01/09 10:02:58;;;;;;;2.03;1.15;;;6.60;96.70;;;;;;4919678;29;20036;-72
2022/01/09 10:05:32;;;;;;;2.05;1.30;;;6.60;96.70;;;;;;4917022;29;20047;-72
2022/01/09 10:08:06;;;;;;;1.55;1.13;;;6.70;96.70;;;;;;4901662;29;20868;-71
2022/01/09 10:10:37;;;;;;;2.40;1.60;;;6.80;96.70;;;;;;4902284;29;20127;-71
2022/01/09 10:13:07;;;;;;;2.58;1.65;;;6.90;96.70;;;;;;4898921;29;20490;-71
2022/01/09 10:15:49;;;;;;;3.78;2.22;;;6.90;96.70;;;;;;4896211;29;20455;-71
2022/01/09 10:18:38;;;;;;;8.32;6.57;;;7.00;96.70;;;;;;4902478;29;20051;-71
2022/01/09 10:21:07;;;;;;;4.65;2.85;;;7.10;96.70;;;;;;4916258;29;20050;-71
2022/01/09 10:23:54;;;;;;;5.15;3.80;;;7.10;96.70;;;;;;4896161;29;20496;-70
2022/01/09 10:26:24;;;;;;;3.65;2.17;;;7.10;96.70;;;;;;4916341;29;20054;-71
2022/01/09 10:28:52;;;;;;;158.38;113.35;;;7.10;96.70;;;;;;4915217;29;20514;-73
2022/01/09 10:31:20;;;;;;;8.57;6.82;;;7.20;96.70;;;;;;4895850;29;20040;-70
2022/01/09 10:33:59;;;;;;;4.90;3.42;;;7.20;96.70;;;;;;4895520;29;20147;-70
2022/01/09 10:36:35;;;;;;;3.35;2.08;;;7.20;96.70;;;;;;4895808;29;20044;-71
2022/01/09 10:39:05;;;;;;;3.33;2.47;;;7.20;96.70;;;;;;4893710;29;20048;-73
2022/01/09 10:41:51;;;;;;;3.42;2.55;;;7.20;96.70;;;;;;4914100;29;20395;-72
2022/01/09 10:44:20;;;;;;;1.33;1.10;;;7.20;96.70;;;;;;4918169;29;20511;-71
2022/01/09 10:46:57;;;;;;;2.28;1.75;;;7.30;96.70;;;;;;4898936;29;20438;-70
2022/01/09 10:49:36;;;;;;;10.18;6.60;;;7.30;96.70;;;;;;4928616;29;20075;-71
2022/01/09 10:52:15;;;;;;;4.13;2.75;;;7.30;96.70;;;;;;4902783;29;20139;-71
2022/01/09 10:54:46;;;;;;;2.42;1.70;;;7.30;96.70;;;;;;4915609;29;20130;-71
2022/01/09 10:57:17;;;;;;;3.90;2.58;;;7.40;96.70;;;;;;4896903;29;20047;-71
2022/01/09 10:59:46;;;;;;;2.85;1.90;;;7.30;96.70;;;;;;4916213;29;20039;-71
2022/01/09 11:02:14;;;;;;;3.17;2.15;;;7.40;96.70;;;;;;4895197;29;20074;-72
2022/01/09 11:04:44;;;;;;;3.60;2.35;;;7.30;96.70;;;;;;4897397;29;20044;-71
2022/01/09 11:07:12;;;;;;;3.60;2.67;;;7.40;96.70;;;;;;4898327;29;20040;-70
2022/01/09 11:09:44;;;;;;;4.18;3.08;;;7.50;96.70;;;;;;4916440;29;20051;-72
2022/01/09 11:12:17;;;;;;;5.05;3.22;;;7.50;96.70;;;;;;4899926;29;20118;-71
2022/01/09 11:14:47;;;;;;;4.18;2.60;;;7.50;96.70;;;;;;4915824;29;20068;-72
2022/01/09 11:17:16;;;;;;;2.80;1.80;;;7.60;96.70;;;;;;4900753;29;20167;-72
2022/01/09 11:19:46;;;;;;;3.67;2.25;;;7.60;96.70;;;;;;4915987;29;20146;-72
2022/01/09 11:22:14;;;;;;;2.95;1.95;;;7.60;96.70;;;;;;4922392;29;20074;-72
2022/01/09 11:25:06;;;;;;;3.22;2.25;;;7.70;96.70;;;;;;4919665;29;20047;-72
2022/01/09 11:27:51;;;;;;;2.53;1.73;;;7.70;96.70;;;;;;4915158;29;20114;-71
2022/01/09 11:30:25;;;;;;;6.68;3.67;;;7.70;96.70;;;;;;4901924;29;20044;-71
2022/01/09 11:33:10;;;;;;;5.15;3.63;;;7.70;96.70;;;;;;4921079;29;20047;-72
2022/01/09 11:35:48;;;;;;;4.40;3.10;;;7.90;96.70;;;;;;4921650;29;20114;-72
2022/01/09 11:38:23;;;;;;;2.75;2.00;;;8.10;96.70;;;;;;4898434;29;20083;-72
2022/01/09 11:40:52;;;;;;;3.15;1.92;;;8.20;96.70;;;;;;4898739;29;20099;-72
2022/01/09 11:43:21;;;;;;;2.92;2.22;;;8.10;96.70;;;;;;4916426;29;20122;-71
2022/01/09 11:45:58;;;;;;;7.68;5.38;;;8.10;96.70;;;;;;4914393;29;20044;-72
2022/01/09 11:48:42;;;;;;;6.35;4.20;;;8.20;96.70;;;;;;4915595;29;20107;-72
2022/01/09 11:51:12;;;;;;;2.47;1.50;;;8.20;96.70;;;;;;4918120;29;20051;-72
2022/01/09 11:54:01;;;;;;;2.97;1.58;;;8.20;96.70;;;;;;4904738;29;20071;-71
2022/01/09 11:56:50;;;;;;;5.32;3.05;;;8.40;96.70;;;;;;4911887;29;20048;-72
2022/01/09 11:59:51;;;;;;;3.53;2.60;;;8.60;96.70;;;;;;4918581;29;20067;-72
2022/01/09 12:02:34;;;;;;;3.88;2.78;;;8.80;96.70;;;;;;4909563;29;20062;-72
2022/01/09 12:05:03;;;;;;;2.60;1.90;;;8.90;96.70;;;;;;4922517;29;20494;-72
2022/01/09 12:08:05;;;;;;;3.53;2.10;;;9.10;96.70;;;;;;4906402;29;20043;-71
2022/01/09 12:10:51;;;;;;;4.05;2.30;;;9.30;96.70;;;;;;4923383;29;20047;-72
2022/01/09 12:13:40;;;;;;;3.80;2.78;;;9.50;96.70;;;;;;4905063;29;20064;-72
2022/01/09 12:16:50;;;;;;;3.60;2.38;;;9.60;96.70;;;;;;4904545;29;20075;-72
2022/01/09 12:19:58;;;;;;;2.70;1.73;;;9.70;96.70;;;;;;4919900;29;20188;-71
2022/01/09 12:23:01;;;;;;;3.53;2.08;;;9.90;96.70;;;;;;4905013;29;20083;-72
2022/01/09 12:25:50;;;;;;;2.90;2.25;;;9.90;96.70;;;;;;4904282;29;20048;-71
2022/01/09 12:28:24;;;;;;;3.42;2.40;;;10.00;96.70;;;;;;4903647;29;20558;-72
2022/01/09 12:30:57;;;;;;;5.82;3.72;;;10.30;96.70;;;;;;4905387;29;20122;-72
2022/01/09 12:33:49;;;;;;;3.35;1.88;;;10.30;96.70;;;;;;4927685;29;20039;-72
2022/01/09 12:36:23;;;;;;;1.92;1.40;;;10.30;96.70;;;;;;4914864;29;20417;-72
2022/01/09 12:38:59;;;;;;;3.10;1.95;;;10.60;96.70;;;;;;4903936;29;20470;-72
2022/01/09 12:41:30;;;;;;;2.25;1.60;;;10.70;96.70;;;;;;4905591;29;20469;-71
2022/01/09 12:44:05;;;;;;;2.40;1.45;;;10.80;96.70;;;;;;4903507;29;20074;-72
2022/01/09 12:46:35;;;;;;;2.63;1.63;;;10.80;96.70;;;;;;4907067;29;20035;-72
2022/01/09 12:49:07;;;;;;;2.55;1.67;;;10.60;96.70;;;;;;4898242;29;20083;-72
2022/01/09 12:51:37;;;;;;;3.33;2.10;;;10.50;96.70;;;;;;4908146;29;20047;-72
2022/01/09 12:54:07;;;;;;;6.82;4.40;;;10.50;96.70;;;;;;4920034;29;20048;-72
2022/01/09 12:56:37;;;;;;;5.88;3.28;;;10.50;96.70;;;;;;4920045;29;20055;-72
2022/01/09 12:59:07;;;;;;;4.07;2.80;;;10.40;96.70;;;;;;4904967;29;20123;-72
2022/01/09 13:01:41;;;;;;;2.40;1.92;;;10.20;96.70;;;;;;4907028;29;20507;-72
2022/01/09 13:04:14;;;;;;;4.53;2.33;;;10.10;96.70;;;;;;4920971;29;20048;-72
2022/01/09 13:06:45;;;;;;;2.55;1.60;;;10.10;96.70;;;;;;4919419;29;20485;-72
2022/01/09 13:09:15;;;;;;;2.95;2.10;;;10.00;96.70;;;;;;4922261;29;20070;-72
2022/01/09 13:11:54;;;;;;;2.17;1.45;;;9.80;96.70;;;;;;4917448;29;20048;-72